Time;durP1;ratioP1;P1;durP2;ratioP2;P2;SDS_P1;SDS_P2;PMS_P1;PMS_P2;Temp;Humidity;BMP_temperature;BMP_pressure;BME280_temperature;BME280_humidity;BME280_pressure;Samples;Min_cycle;Max_cycle;Signal;HPM_P1;HPM_P2
2023/01/19 00:02:32;;;;;;;12.18;6.53;;;;;;;-0.11;70.09;98916.44;10202360;29;20050;-76
2023/01/19 00:07:35;;;;;;;8.20;4.25;;;;;;;-0.26;70.73;98905.97;10201592;29;20048;-76
2023/01/19 00:12:39;;;;;;;12.27;7.30;;;;;;;-0.30;70.25;98913.22;10210143;29;20138;-76
2023/01/19 00:17:42;;;;;;;11.07;5.55;;;;;;;-0.64;71.51;98920.47;10204379;29;20413;-76
2023/01/19 00:22:49;;;;;;;16.33;8.57;;;;;;;-0.25;71.68;98910.28;10198401;29;20476;-76
2023/01/19 00:27:53;;;;;;;13.05;5.28;;;;;;;-0.14;70.10;98899.94;10208292;29;20054;-76
2023/01/19 00:32:58;;;;;;;15.57;9.00;;;;;;;-0.14;71.25;98902.56;10190334;29;20051;-76
2023/01/19 00:38:02;;;;;;;13.35;7.65;;;;;;;-0.25;71.32;98911.13;10201625;29;20040;-75
2023/01/19 00:43:06;;;;;;;14.70;7.93;;;;;;;0.08;70.46;98913.53;10200860;29;20071;-76
2023/01/19 00:48:09;;;;;;;13.35;8.07;;;;;;;-0.20;71.24;98927.53;10189521;29;20088;-76
2023/01/19 00:53:11;;;;;;;23.58;10.90;;;;;;;-0.08;71.85;98921.53;10198520;29;20106;-76
2023/01/19 00:58:16;;;;;;;15.32;9.10;;;;;;;0.06;71.71;98911.94;10196648;29;20464;-76
2023/01/19 01:03:18;;;;;;;16.77;9.27;;;;;;;0.12;71.62;98911.56;10193263;29;20074;-75
2023/01/19 01:08:21;;;;;;;17.00;9.60;;;;;;;0.09;71.69;98907.31;10248909;29;20051;-76
2023/01/19 01:13:25;;;;;;;13.10;7.60;;;;;;;-0.22;72.78;98915.38;10239431;29;20063;-75
2023/01/19 01:18:29;;;;;;;17.60;9.50;;;;;;;-0.14;72.88;98921.03;10174266;29;20048;-76
2023/01/19 01:23:33;;;;;;;16.05;9.75;;;;;;;0.08;72.04;98933.78;10176847;29;20388;-76
2023/01/19 01:28:37;;;;;;;17.50;10.85;;;;;;;0.21;71.00;98925.97;10194247;29;20052;-76
2023/01/19 01:33:39;;;;;;;12.90;7.18;;;;;;;0.15;71.40;98943.06;10203800;29;20503;-76
2023/01/19 01:38:43;;;;;;;13.60;8.88;;;;;;;0.26;70.65;98945.88;10193640;29;20485;-76
2023/01/19 01:43:49;;;;;;;12.30;6.95;;;;;;;0.28;70.81;98948.44;10184576;29;20050;-76
2023/01/19 01:48:58;;;;;;;18.98;8.48;;;;;;;0.25;70.91;98957.41;10196251;29;20491;-76
2023/01/19 01:54:11;;;;;;;22.25;10.50;;;;;;;0.31;70.97;98941.16;10200654;29;20495;-76
2023/01/19 01:59:24;;;;;;;15.52;9.63;;;;;;;0.42;70.42;98931.75;10195011;29;20606;-76
2023/01/19 02:04:29;;;;;;;13.35;8.05;;;;;;;0.61;70.10;98935.78;10172481;29;20072;-76
2023/01/19 02:14:56;;;;;;;21.95;11.38;;;;;;;0.35;71.35;98939.19;10193787;29;20072;-75
2023/01/19 02:19:59;;;;;;;18.58;11.18;;;;;;;0.67;70.91;98931.03;10197467;29;20121;-75
2023/01/19 02:25:04;;;;;;;18.27;10.05;;;;;;;0.80;70.07;98926.69;10194057;29;20048;-75
2023/01/19 02:30:09;;;;;;;17.77;9.80;;;;;;;0.83;70.28;98923.84;10185303;29;20048;-75
2023/01/19 02:35:12;;;;;;;20.00;11.90;;;;;;;0.58;71.74;98908.69;10200158;29;20122;-76
2023/01/19 02:40:19;;;;;;;18.48;10.95;;;;;;;0.81;71.13;98923.94;10191036;29;20048;-75
2023/01/19 02:45:23;;;;;;;20.92;10.98;;;;;;;0.50;72.12;98914.47;10189820;29;20515;-75
2023/01/19 02:50:48;;;;;;;20.52;10.10;;;;;;;0.49;71.75;98922.47;10200711;29;20517;-76
2023/01/19 02:55:57;;;;;;;20.10;10.60;;;;;;;0.92;71.11;98904.72;10196454;29;20122;-75
2023/01/19 03:01:09;;;;;;;20.45;11.45;;;;;;;0.43;72.37;98907.00;10184215;29;20054;-75
2023/01/19 03:06:22;;;;;;;20.27;11.10;;;;;;;0.46;73.00;98904.19;10186718;29;20039;-75
2023/01/19 03:11:31;;;;;;;14.50;10.85;;;;;;;0.53;72.04;98908.13;10204968;29;20043;-75
2023/01/19 03:16:39;;;;;;;14.82;8.18;;;;;;;0.54;72.56;98897.44;10207903;29;20050;-74
2023/01/19 03:21:47;;;;;;;19.35;10.60;;;;;;;0.60;72.04;98901.50;10192995;29;20048;-75
2023/01/19 03:26:56;;;;;;;16.80;9.65;;;;;;;0.48;73.02;98895.22;10197379;29;20119;-75
2023/01/19 03:32:02;;;;;;;18.42;10.20;;;;;;;0.47;73.21;98922.59;10205875;29;20043;-75
2023/01/19 03:37:10;;;;;;;17.85;11.10;;;;;;;0.68;72.55;98907.16;10199900;29;20048;-75
2023/01/19 03:42:17;;;;;;;16.60;11.30;;;;;;;0.75;72.07;98918.19;10198788;29;20058;-75
2023/01/19 03:47:20;;;;;;;15.65;8.70;;;;;;;0.50;73.13;98925.03;10197852;29;20139;-75
2023/01/19 03:52:32;;;;;;;19.33;10.38;;;;;;;0.61;72.95;98909.34;10204206;29;20063;-74
2023/01/19 03:57:36;;;;;;;16.98;9.48;;;;;;;0.61;73.04;98904.06;10187808;29;20050;-74
2023/01/19 04:02:39;;;;;;;19.73;10.77;;;;;;;0.97;71.48;98905.28;10201182;29;20048;-75
2023/01/19 04:07:42;;;;;;;19.63;11.38;;;;;;;0.74;72.54;98893.56;10199015;29;20507;-75
2023/01/19 04:12:46;;;;;;;10.40;6.50;;;;;;;0.13;74.21;98900.03;10201866;29;20047;-75
2023/01/19 04:17:49;;;;;;;17.50;8.68;;;;;;;0.47;73.25;98888.25;10193498;29;20044;-75
2023/01/19 04:22:52;;;;;;;12.65;6.80;;;;;;;0.60;72.15;98886.53;10221360;23;20054;-76
2023/01/19 04:27:57;;;;;;;20.17;9.10;;;;;;;0.66;72.36;98881.75;10203846;29;20044;-76
2023/01/19 04:33:00;;;;;;;15.30;9.00;;;;;;;0.69;72.26;98884.22;10205144;29;20047;-76
2023/01/19 04:38:03;;;;;;;18.52;8.75;;;;;;;0.33;73.74;98881.19;10208529;29;20075;-75
2023/01/19 04:43:08;;;;;;;21.70;10.48;;;;;;;0.62;73.13;98883.75;10199986;29;20050;-76
2023/01/19 04:48:10;;;;;;;14.13;7.95;;;;;;;0.79;72.33;98880.88;10204817;29;20430;-76
2023/01/19 04:53:15;;;;;;;14.95;8.60;;;;;;;0.72;72.28;98895.44;10196790;29;20047;-76
2023/01/19 04:58:19;;;;;;;17.55;9.27;;;;;;;0.66;71.89;98901.13;10195548;29;20052;-76
2023/01/19 05:03:21;;;;;;;15.10;7.55;;;;;;;0.61;72.55;98896.13;10206683;29;20043;-76
2023/01/19 05:08:27;;;;;;;15.93;6.93;;;;;;;0.83;71.50;98902.69;10204058;29;20051;-76
2023/01/19 05:13:32;;;;;;;9.35;4.93;;;;;;;0.92;70.75;98895.97;10200737;29;20075;-76
2023/01/19 05:18:35;;;;;;;16.23;8.43;;;;;;;1.02;70.79;98900.56;10188129;29;20040;-76
2023/01/19 05:23:38;;;;;;;11.35;7.40;;;;;;;0.79;71.19;98917.88;10199550;29;20073;-76
2023/01/19 05:28:42;;;;;;;15.50;6.93;;;;;;;0.81;71.71;98894.00;10202004;29;20765;-77
2023/01/19 05:33:45;;;;;;;12.25;6.47;;;;;;;1.09;70.21;98886.91;10196358;29;20044;-76
2023/01/19 05:38:48;;;;;;;13.15;7.50;;;;;;;1.04;70.62;98888.09;10197332;29;20055;-76
2023/01/19 05:43:52;;;;;;;14.52;7.50;;;;;;;0.92;70.81;98872.16;10202265;29;20078;-76
2023/01/19 05:48:55;;;;;;;13.85;8.18;;;;;;;1.26;70.28;98876.06;10199641;29;20087;-76
2023/01/19 05:53:57;;;;;;;9.70;6.35;;;;;;;1.27;69.62;98872.50;10199314;29;20138;-76
2023/01/19 05:59:02;;;;;;;12.90;8.07;;;;;;;1.37;69.46;98876.22;10198873;29;20071;-76
2023/01/19 06:04:05;;;;;;;15.25;8.35;;;;;;;1.26;70.06;98881.34;10195657;29;20054;-76
2023/01/19 06:09:08;;;;;;;14.18;7.22;;;;;;;0.82;72.39;98871.91;10197209;29;20684;-76
2023/01/19 06:14:12;;;;;;;18.85;8.80;;;;;;;0.90;72.04;98880.19;10198036;29;20131;-76
2023/01/19 06:19:15;;;;;;;10.15;5.65;;;;;;;0.53;73.93;98887.84;10198281;29;20052;-76
2023/01/19 06:24:18;;;;;;;10.43;6.32;;;;;;;0.63;74.92;98905.75;10194375;29;20059;-76
2023/01/19 06:29:23;;;;;;;17.33;7.88;;;;;;;0.49;76.27;98912.75;10199058;29;20044;-77
2023/01/19 06:34:27;;;;;;;10.30;6.20;;;;;;;0.66;77.04;98894.97;10198834;29;20054;-76
2023/01/19 06:39:30;;;;;;;13.80;7.88;;;;;;;0.51;77.49;98910.88;10193390;29;20107;-76
2023/01/19 06:44:34;;;;;;;13.90;8.98;;;;;;;0.47;79.25;98916.47;10192927;29;20999;-76
2023/01/19 06:49:37;;;;;;;11.10;6.30;;;;;;;0.20;80.65;98914.59;10197434;29;20107;-76
2023/01/19 06:54:42;;;;;;;15.02;9.40;;;;;;;0.00;82.47;98910.53;10201776;29;20058;-76
2023/01/19 06:59:48;;;;;;;10.63;5.07;;;;;;;-0.15;82.79;98919.38;10192576;29;20495;-76
2023/01/19 07:04:51;;;;;;;10.52;7.50;;;;;;;-0.38;85.29;98926.88;10194190;29;20107;-76
2023/01/19 07:09:53;;;;;;;11.95;8.13;;;;;;;0.02;83.76;98960.56;10185186;29;20055;-76
2023/01/19 07:14:58;;;;;;;11.90;7.05;;;;;;;-0.14;84.19;98928.97;10189364;29;20499;-76
2023/01/19 07:20:01;;;;;;;9.82;6.95;;;;;;;-0.23;85.11;98940.94;10199757;29;20126;-77
2023/01/19 07:25:05;;;;;;;8.25;5.90;;;;;;;-0.29;84.94;98955.34;10192130;29;20066;-77
2023/01/19 07:30:10;;;;;;;6.15;4.93;;;;;;;-0.43;86.28;98938.63;10196531;29;20484;-76
2023/01/19 07:35:14;;;;;;;7.97;5.72;;;;;;;-0.30;85.75;98966.84;10190174;29;20056;-76
2023/01/19 07:40:17;;;;;;;9.48;6.82;;;;;;;-0.40;86.30;98970.94;10201661;29;20513;-77
2023/01/19 07:45:22;;;;;;;12.15;9.02;;;;;;;-0.38;87.10;98974.34;10203781;29;20047;-77
2023/01/19 07:50:26;;;;;;;9.45;5.38;;;;;;;-0.58;85.95;98978.13;10204089;29;20098;-77
2023/01/19 07:55:29;;;;;;;10.57;4.03;;;;;;;-0.32;85.62;98981.06;10203453;29;20079;-77
2023/01/19 08:00:34;;;;;;;13.10;9.07;;;;;;;-0.37;87.12;98988.41;10196573;29;20107;-78
2023/01/19 08:05:37;;;;;;;9.52;7.53;;;;;;;-0.36;86.75;98996.19;10195141;29;20048;-77
2023/01/19 08:10:40;;;;;;;11.20;8.45;;;;;;;-0.35;86.75;99011.13;10206945;29;20480;-78
2023/01/19 08:15:44;;;;;;;14.70;10.27;;;;;;;-0.29;87.36;99012.53;10209669;29;20052;-77
2023/01/19 08:20:47;;;;;;;9.68;6.35;;;;;;;-0.49;88.40;99024.25;10202295;29;20071;-78
2023/01/19 08:25:50;;;;;;;9.30;6.43;;;;;;;-0.09;86.41;99021.94;10199009;29;20058;-79
2023/01/19 08:30:54;;;;;;;11.85;8.93;;;;;;;-0.34;87.46;99027.78;10212510;29;20040;-78
2023/01/19 08:35:57;;;;;;;13.40;8.80;;;;;;;-0.40;88.57;99033.44;10214583;29;20514;-78
2023/01/19 08:41:00;;;;;;;10.40;7.93;;;;;;;-0.19;86.91;99037.47;10193230;29;20419;-77
2023/01/19 08:46:05;;;;;;;11.10;8.13;;;;;;;-0.56;87.70;99050.13;10200718;29;20085;-77
2023/01/19 08:51:08;;;;;;;13.02;8.55;;;;;;;-0.22;87.02;99061.41;10202447;29;20039;-77
2023/01/19 08:56:12;;;;;;;13.98;8.02;;;;;;;-0.26;86.98;99059.03;10201087;29;20059;-77
2023/01/19 09:01:19;;;;;;;14.98;10.32;;;;;;;-0.07;86.18;99070.22;10206833;29;20064;-77
2023/01/19 09:06:24;;;;;;;14.82;9.00;;;;;;;-0.12;86.45;99073.09;10206547;29;20056;-77
2023/01/19 09:11:27;;;;;;;14.07;10.13;;;;;;;-0.00;86.73;99089.19;10206929;29;20491;-77
2023/01/19 09:16:31;;;;;;;13.48;8.70;;;;;;;-0.28;87.84;99083.69;10195151;29;20599;-77
2023/01/19 09:21:34;;;;;;;10.63;7.63;;;;;;;-0.14;87.42;99098.75;10195925;29;20050;-77
2023/01/19 09:26:39;;;;;;;10.30;7.85;;;;;;;-0.33;89.28;99095.44;10197175;29;20510;-78
2023/01/19 09:31:44;;;;;;;11.65;8.25;;;;;;;0.04;87.16;99103.91;10208963;29;20499;-76
2023/01/19 09:36:47;;;;;;;12.02;9.27;;;;;;;0.05;87.34;99105.59;10209524;29;20050;-76
2023/01/19 09:41:59;;;;;;;12.05;9.23;;;;;;;0.42;86.27;99114.88;10202428;29;20198;-76
2023/01/19 09:47:12;;;;;;;;;;;;;;;0.16;87.12;99111.97;10200428;29;20217;-77
2023/01/19 09:52:16;;;;;;;9.73;7.00;;;;;;;0.29;86.35;99121.81;10203396;29;20350;-77
2023/01/19 09:57:19;;;;;;;10.07;7.40;;;;;;;0.09;86.60;99134.41;10197609;29;20052;-76
2023/01/19 10:02:37;;;;;;;8.52;6.10;;;;;;;0.01;87.59;99136.63;10196386;29;20074;-77
2023/01/19 10:07:54;;;;;;;12.57;8.70;;;;;;;-0.13;89.44;99133.94;10187955;29;20048;-77
2023/01/19 10:13:09;;;;;;;9.13;5.55;;;;;;;-0.03;89.95;99145.63;10193995;29;20064;-76
2023/01/19 10:18:24;;;;;;;20.60;10.15;;;;;;;0.35;88.96;99154.00;10196867;29;20054;-77
2023/01/19 10:23:36;;;;;;;12.30;7.10;;;;;;;-0.21;87.65;99160.75;10222318;23;20079;-78
2023/01/19 10:28:40;;;;;;;13.38;7.47;;;;;;;-0.48;88.11;99171.03;10193776;29;20087;-77
2023/01/19 10:33:44;;;;;;;10.50;6.28;;;;;;;-0.97;89.64;99171.88;10192942;29;20088;-77
2023/01/19 10:38:48;;;;;;;8.90;5.63;;;;;;;-0.56;88.65;99170.59;10202452;29;20044;-79
2023/01/19 10:43:59;;;;;;;8.68;6.13;;;;;;;-0.38;88.40;99174.03;10197634;29;20068;-81
2023/01/19 10:49:05;;;;;;;8.43;5.18;;;;;;;-0.37;88.72;99181.84;10179930;29;20055;-78
2023/01/19 10:54:12;;;;;;;11.73;7.20;;;;;;;-0.19;88.60;99185.28;10193008;29;20072;-77
2023/01/19 10:59:31;;;;;;;9.18;5.63;;;;;;;-0.58;90.31;99197.06;10174042;29;20517;-77
2023/01/19 11:04:36;;;;;;;7.72;5.20;;;;;;;-0.38;88.78;99198.63;10170509;29;20082;-77
2023/01/19 11:09:38;;;;;;;6.40;4.75;;;;;;;-0.52;88.88;99202.03;10192169;29;20487;-79
2023/01/19 11:14:41;;;;;;;8.02;5.22;;;;;;;-0.46;88.74;99197.34;10201929;29;20048;-79
2023/01/19 11:19:54;;;;;;;8.77;6.07;;;;;;;0.10;87.16;99203.91;10202575;29;20040;-79
2023/01/19 11:25:02;;;;;;;4.35;2.83;;;;;;;-0.23;88.56;99204.00;10200629;29;20507;-80
2023/01/19 11:30:17;;;;;;;8.15;5.38;;;;;;;-0.17;89.80;99212.41;10209285;29;20067;-79
2023/01/19 11:35:35;;;;;;;14.20;8.25;;;;;;;0.18;88.93;99206.94;10219638;29;20061;-79
2023/01/19 11:40:39;;;;;;;15.38;7.72;;;;;;;0.21;88.56;99222.63;10195462;29;20556;-78
2023/01/19 11:45:43;;;;;;;13.65;5.85;;;;;;;0.05;89.78;99224.41;10195409;29;20147;-78
2023/01/19 11:50:49;;;;;;;26.98;11.80;;;;;;;0.41;89.51;99213.53;10211186;28;20928;-77
2023/01/19 11:55:56;;;;;;;22.77;11.48;;;;;;;0.94;88.05;99214.00;10226348;28;20046;-77
2023/01/19 12:01:04;;;;;;;26.77;12.43;;;;;;;0.55;90.01;99221.56;10201560;28;20059;-77
2023/01/19 12:06:12;;;;;;;26.00;13.20;;;;;;;0.68;89.69;99218.19;10163222;28;20142;-78
2023/01/19 12:11:19;;;;;;;22.65;10.80;;;;;;;1.00;88.61;99222.41;10166333;28;20596;-76
2023/01/19 12:16:23;;;;;;;23.35;11.20;;;;;;;1.09;87.82;99223.63;10156704;29;20059;-76
2023/01/19 12:21:28;;;;;;;23.77;11.10;;;;;;;1.10;88.55;99230.66;10156731;28;20044;-76
2023/01/19 12:26:38;;;;;;;28.88;10.90;;;;;;;1.05;87.71;99232.72;10160174;28;20259;-76
2023/01/19 12:31:41;;;;;;;23.48;9.40;;;;;;;0.73;88.10;99247.84;10170495;28;20046;-74
2023/01/19 12:36:47;;;;;;;18.05;8.98;;;;;;;0.96;86.76;99246.47;10153284;28;20135;-74
2023/01/19 12:42:05;;;;;;;11.88;4.25;;;;;;;0.77;86.99;99254.66;10137837;28;20194;-75
2023/01/19 12:47:23;;;;;;;6.43;3.45;;;;;;;0.71;87.11;99255.84;10175859;28;20118;-75
2023/01/19 12:52:33;;;;;;;17.63;8.73;;;;;;;0.96;86.14;99257.03;10117632;28;20048;-75
2023/01/19 12:57:40;;;;;;;25.73;8.63;;;;;;;0.89;85.34;99264.50;10171990;28;20051;-72
2023/01/19 13:02:45;;;;;;;21.90;7.30;;;;;;;0.95;85.58;99261.50;10175978;28;20134;-73
2023/01/19 13:08:18;;;;;;;12.20;7.00;;;;;;;1.30;84.98;99278.84;10163499;28;21360;-74
2023/01/19 13:13:23;;;;;;;20.15;7.57;;;;;;;1.36;84.28;99281.97;10153321;28;20103;-74
2023/01/19 13:18:29;;;;;;;18.77;6.65;;;;;;;1.37;84.60;99285.47;10142453;28;20056;-75
2023/01/19 13:23:53;;;;;;;18.48;6.68;;;;;;;1.35;84.71;99282.94;10137515;29;20055;-75
2023/01/19 13:28:58;;;;;;;14.25;8.27;;;;;;;1.65;83.64;99280.22;10124453;29;20044;-74
2023/01/19 13:34:02;;;;;;;15.25;6.45;;;;;;;2.23;80.91;99291.59;10154160;28;20048;-73
2023/01/19 13:39:14;;;;;;;22.50;6.65;;;;;;;2.03;81.12;99292.88;10155075;28;20063;-74
2023/01/19 13:44:23;;;;;;;20.38;7.22;;;;;;;2.11;80.17;99295.88;10097446;29;20052;-73
2023/01/19 13:49:30;;;;;;;15.05;6.28;;;;;;;1.89;80.84;99306.97;10087044;29;20194;-74
2023/01/19 13:54:34;;;;;;;14.20;6.68;;;;;;;1.32;81.80;99311.34;10148281;28;20105;-74
2023/01/19 13:59:37;;;;;;;16.63;8.70;;;;;;;1.58;83.05;99323.88;10151694;28;20052;-74
2023/01/19 14:04:41;;;;;;;24.65;12.18;;;;;;;1.36;83.59;99334.91;10169629;28;20248;-73
2023/01/19 14:09:45;;;;;;;23.23;11.10;;;;;;;1.62;83.05;99337.75;10151626;28;20121;-73
2023/01/19 14:14:48;;;;;;;33.38;11.57;;;;;;;1.63;83.00;99344.78;10137988;28;20048;-73
2023/01/19 14:19:52;;;;;;;27.52;12.38;;;;;;;1.84;81.94;99351.41;10149163;28;20047;-74
2023/01/19 14:25:27;;;;;;;27.10;12.00;;;;;;;1.98;81.21;99355.88;10161359;28;20052;-74
2023/01/19 14:30:31;;;;;;;21.35;11.20;;;;;;;1.76;79.86;99366.06;10104179;29;20573;-73
2023/01/19 14:35:34;;;;;;;21.92;9.90;;;;;;;1.52;80.22;99368.41;10173661;28;20459;-74
2023/01/19 14:40:39;;;;;;;19.40;9.32;;;;;;;1.62;80.24;99374.81;10147535;28;20079;-76
2023/01/19 14:45:47;;;;;;;28.90;9.82;;;;;;;1.67;79.13;99383.34;10152950;28;20138;-74
2023/01/19 14:50:59;;;;;;;21.23;10.50;;;;;;;1.76;79.14;99387.25;10145013;29;20048;-74
2023/01/19 14:56:07;;;;;;;21.75;10.57;;;;;;;1.69;79.10;99390.25;10166225;28;20054;-74
2023/01/19 15:01:09;;;;;;;25.15;12.95;;;;;;;2.00;78.93;99390.19;10133545;29;20063;-75
2023/01/19 15:06:15;;;;;;;24.08;11.45;;;;;;;1.64;78.78;99405.56;10135035;28;20060;-75
2023/01/19 15:11:23;;;;;;;20.98;11.20;;;;;;;1.33;79.80;99400.38;10139147;29;20059;-75
2023/01/19 15:16:28;;;;;;;28.48;13.52;;;;;;;1.27;80.42;99409.53;10132532;29;20044;-76
2023/01/19 15:21:31;;;;;;;26.10;13.50;;;;;;;1.11;81.08;99427.22;10092974;29;20055;-74
2023/01/19 15:26:37;;;;;;;23.98;11.93;;;;;;;0.96;81.38;99426.28;10128975;28;20048;-75
2023/01/19 15:31:40;;;;;;;21.58;11.30;;;;;;;0.68;82.25;99434.91;10140684;29;20048;-76
2023/01/19 15:36:44;;;;;;;22.75;12.90;;;;;;;0.90;81.94;99432.78;10151947;28;20056;-75
2023/01/19 15:41:48;;;;;;;38.78;17.33;;;;;;;0.60;83.25;99443.25;10171971;28;20562;-75
2023/01/19 15:46:51;;;;;;;25.30;13.30;;;;;;;0.87;81.37;99435.59;10163490;28;20135;-74
2023/01/19 15:51:56;;;;;;;28.83;14.55;;;;;;;0.70;82.27;99448.91;10171287;28;20136;-73
2023/01/19 15:57:00;;;;;;;25.38;11.45;;;;;;;0.28;83.79;99453.81;10157439;28;20767;-74
2023/01/19 16:02:04;;;;;;;26.80;12.48;;;;;;;0.63;82.21;99458.09;10135651;29;20423;-74
2023/01/19 16:07:07;;;;;;;29.90;13.95;;;;;;;0.65;81.78;99457.09;10150191;28;20048;-74
2023/01/19 16:12:11;;;;;;;38.05;14.35;;;;;;;0.63;82.31;99463.38;10114689;29;20508;-73
2023/01/19 16:17:15;;;;;;;31.85;14.45;;;;;;;0.62;82.42;99478.41;10151625;28;20082;-74
2023/01/19 16:22:17;;;;;;;34.40;15.48;;;;;;;0.70;82.24;99478.84;10155658;29;20090;-75
2023/01/19 16:27:22;;;;;;;40.28;15.40;;;;;;;0.62;82.43;99475.75;10174206;28;20138;-74
2023/01/19 16:32:25;;;;;;;27.35;12.65;;;;;;;0.45;82.85;99478.47;10177529;28;20051;-75
2023/01/19 16:37:28;;;;;;;31.02;13.15;;;;;;;0.43;83.07;99490.91;10177148;28;20047;-74
2023/01/19 16:42:32;;;;;;;30.33;13.63;;;;;;;0.36;83.96;99501.78;10149932;29;20778;-74
2023/01/19 16:47:35;;;;;;;35.78;17.13;;;;;;;0.60;82.53;99499.66;10157982;28;20300;-75
2023/01/19 16:52:38;;;;;;;36.00;18.25;;;;;;;0.59;81.61;99503.19;10099905;29;20180;-76
2023/01/19 16:57:42;;;;;;;42.33;19.02;;;;;;;0.58;81.63;99513.88;10146300;28;20400;-75
2023/01/19 17:02:45;;;;;;;37.42;16.75;;;;;;;0.61;81.14;99521.63;10171766;28;20050;-73
2023/01/19 17:07:47;;;;;;;40.60;20.58;;;;;;;0.55;82.15;99528.09;10159379;28;20504;-76
2023/01/19 17:12:52;;;;;;;25.30;12.73;;;;;;;0.33;82.36;99535.44;10156250;28;20075;-74
2023/01/19 17:17:54;;;;;;;32.20;14.55;;;;;;;0.60;81.38;99531.34;10152037;28;20126;-74
2023/01/19 17:22:57;;;;;;;51.95;21.63;;;;;;;0.65;81.16;99541.66;10137937;29;20156;-74
2023/01/19 17:28:01;;;;;;;58.05;26.15;;;;;;;0.48;81.75;99539.06;10132906;29;21299;-74
2023/01/19 17:33:04;;;;;;;41.03;20.88;;;;;;;0.48;82.36;99544.34;10148128;29;20055;-76
2023/01/19 17:38:07;;;;;;;57.28;22.98;;;;;;;0.49;82.46;99543.41;10141240;28;20424;-78
2023/01/19 17:43:11;;;;;;;50.33;22.33;;;;;;;0.61;82.13;99554.19;10149630;28;20063;-77
2023/01/19 17:48:16;;;;;;;51.00;23.70;;;;;;;0.88;80.46;99552.78;10156961;28;20091;-76
2023/01/19 17:53:19;;;;;;;36.85;19.33;;;;;;;0.48;81.47;99560.22;10152613;28;20846;-76
2023/01/19 17:58:24;;;;;;;51.17;23.77;;;;;;;0.68;80.59;99559.16;10145011;28;20106;-76
2023/01/19 18:03:27;;;;;;;51.00;22.58;;;;;;;0.65;80.63;99561.97;10172793;28;20073;-77
2023/01/19 18:08:31;;;;;;;53.50;26.00;;;;;;;0.30;81.46;99573.47;10176620;28;20058;-77
2023/01/19 18:13:35;;;;;;;36.67;16.92;;;;;;;0.29;81.33;99568.25;10163131;28;20139;-77
2023/01/19 18:18:38;;;;;;;54.70;24.23;;;;;;;0.55;81.20;99572.16;10144152;29;20048;-77
2023/01/19 18:23:42;;;;;;;46.80;20.83;;;;;;;0.37;81.56;99574.81;10156929;28;20111;-75
2023/01/19 18:28:46;;;;;;;39.75;15.20;;;;;;;0.21;81.84;99573.06;10154282;28;20420;-77
2023/01/19 18:33:49;;;;;;;57.78;27.75;;;;;;;0.63;80.88;99577.88;10175046;28;21542;-75
2023/01/19 18:38:52;;;;;;;61.03;26.70;;;;;;;0.45;81.69;99594.72;10147104;28;20518;-77
2023/01/19 18:43:58;;;;;;;54.15;24.92;;;;;;;0.75;80.23;99592.28;10145425;28;20199;-77
2023/01/19 18:49:01;;;;;;;56.17;24.98;;;;;;;0.77;80.40;99583.31;10167748;28;20058;-77
2023/01/19 18:54:04;;;;;;;58.05;26.35;;;;;;;0.64;81.05;99591.97;10176896;28;20048;-77
2023/01/19 18:59:23;;;;;;;54.88;24.33;;;;;;;0.59;81.57;99595.72;10148602;29;20091;-76
2023/01/19 19:04:27;;;;;;;61.88;27.00;;;;;;;0.57;81.85;99592.28;10167456;28;20115;-77
2023/01/19 19:09:30;;;;;;;45.17;19.58;;;;;;;0.52;81.46;99602.25;10163358;28;20066;-77
2023/01/19 19:14:34;;;;;;;46.30;19.95;;;;;;;0.49;81.58;99602.41;10163228;28;20052;-76
2023/01/19 19:19:37;;;;;;;29.48;15.10;;;;;;;0.45;81.91;99597.38;10145133;28;20044;-77
2023/01/19 19:24:40;;;;;;;51.75;23.23;;;;;;;0.65;81.02;99610.38;10146191;28;21191;-76
2023/01/19 19:29:47;;;;;;;28.15;13.05;;;;;;;0.33;81.28;99612.94;10153416;28;20127;-76
2023/01/19 19:34:51;;;;;;;35.80;18.23;;;;;;;0.27;81.69;99612.34;10152673;28;20158;-76
2023/01/19 19:39:54;;;;;;;41.28;19.02;;;;;;;0.27;82.04;99620.28;10152848;28;20043;-75
2023/01/19 19:44:58;;;;;;;65.63;27.35;;;;;;;0.37;81.50;99626.81;10146080;28;20100;-77
2023/01/19 19:50:01;;;;;;;54.17;22.85;;;;;;;0.24;81.68;99629.22;10161573;28;20051;-77
2023/01/19 19:55:06;;;;;;;67.68;26.17;;;;;;;0.31;81.34;99632.44;10165410;28;20059;-77
2023/01/19 20:00:11;;;;;;;69.53;28.88;;;;;;;0.29;81.54;99640.41;10175434;28;20055;-76
2023/01/19 20:05:15;;;;;;;55.67;26.73;;;;;;;0.27;80.34;99641.41;10180883;28;20087;-77
2023/01/19 20:10:18;;;;;;;45.47;21.42;;;;;;;0.36;80.52;99662.97;10170445;28;20056;-77
2023/01/19 20:15:22;;;;;;;44.65;18.90;;;;;;;0.11;81.84;99665.09;10176793;28;20051;-77
2023/01/19 20:20:25;;;;;;;49.47;23.80;;;;;;;0.44;80.38;99670.50;10193538;28;20100;-77
2023/01/19 20:25:28;;;;;;;55.15;23.33;;;;;;;0.20;80.83;99672.59;10150432;28;20052;-74
2023/01/19 20:30:32;;;;;;;54.15;21.95;;;;;;;0.22;80.73;99675.13;10174678;28;20103;-77
2023/01/19 20:35:35;;;;;;;60.83;28.30;;;;;;;0.42;79.99;99682.94;10175650;28;20059;-77
2023/01/19 20:40:38;;;;;;;57.67;28.13;;;;;;;0.47;79.70;99686.22;10165379;28;20055;-77
2023/01/19 20:45:43;;;;;;;60.47;29.77;;;;;;;0.27;79.96;99689.81;10158846;29;20102;-75
2023/01/19 20:50:46;;;;;;;73.13;30.83;;;;;;;0.41;79.03;99694.41;10179362;28;20054;-76
2023/01/19 20:55:49;;;;;;;66.45;30.42;;;;;;;0.40;79.26;99695.34;10176043;28;20074;-78
2023/01/19 21:00:53;;;;;;;51.00;21.92;;;;;;;0.20;80.06;99709.56;10163933;28;20143;-77
2023/01/19 21:05:56;;;;;;;48.88;22.63;;;;;;;0.34;79.42;99696.53;10169289;28;20079;-76
2023/01/19 21:11:01;;;;;;;53.83;25.77;;;;;;;0.32;78.85;99713.38;10167103;28;20112;-77
2023/01/19 21:16:07;;;;;;;48.20;20.80;;;;;;;0.36;78.67;99722.88;10176215;28;20054;-76
2023/01/19 21:21:10;;;;;;;45.47;22.50;;;;;;;0.28;78.95;99725.91;10162866;28;20052;-76
2023/01/19 21:26:32;;;;;;;48.33;20.90;;;;;;;0.20;78.39;99732.50;10156966;28;20416;-77
2023/01/19 21:31:36;;;;;;;56.97;23.33;;;;;;;-0.06;78.79;99738.06;10226334;23;20056;-78
2023/01/19 21:36:40;;;;;;;60.10;27.77;;;;;;;0.33;78.66;99741.50;10213704;29;20063;-78
2023/01/19 21:41:43;;;;;;;63.40;29.20;;;;;;;0.66;78.21;99746.94;10191263;29;20051;-78
2023/01/19 21:46:48;;;;;;;44.92;20.80;;;;;;;0.58;78.05;99755.22;10190883;29;20364;-78
2023/01/19 21:51:50;;;;;;;61.70;28.80;;;;;;;0.10;79.13;99763.75;10195411;29;20561;-79
2023/01/19 21:56:53;;;;;;;62.80;28.45;;;;;;;0.25;78.30;99770.06;10201277;29;20048;-79
2023/01/19 22:01:57;;;;;;;62.83;28.60;;;;;;;0.43;78.40;99763.91;10192447;29;20067;-77
2023/01/19 22:07:01;;;;;;;55.80;27.20;;;;;;;0.70;77.95;99789.91;10184204;29;20051;-78
2023/01/19 22:12:04;;;;;;;62.13;27.55;;;;;;;0.28;78.62;99797.22;10189350;29;20063;-79
2023/01/19 22:17:08;;;;;;;71.47;29.73;;;;;;;0.34;79.22;99798.72;10196155;29;20491;-78
2023/01/19 22:22:11;;;;;;;60.20;27.35;;;;;;;0.26;78.54;99795.59;10191544;29;20555;-77
2023/01/19 22:27:14;;;;;;;57.88;28.33;;;;;;;0.52;78.51;99813.69;10174838;29;20055;-76
2023/01/19 22:32:18;;;;;;;48.35;23.17;;;;;;;0.27;78.89;99810.50;10185728;29;20448;-79
2023/01/19 22:37:20;;;;;;;61.80;25.23;;;;;;;0.27;78.56;99813.13;10193402;29;20075;-78
2023/01/19 22:42:23;;;;;;;62.95;28.65;;;;;;;0.32;78.72;99804.06;10191274;29;20040;-78
2023/01/19 22:47:27;;;;;;;63.83;28.23;;;;;;;0.39;78.75;99815.22;10185352;29;20100;-78
2023/01/19 22:52:30;;;;;;;60.85;29.02;;;;;;;0.16;79.44;99813.63;10181993;29;20075;-77
2023/01/19 22:57:35;;;;;;;59.75;25.50;;;;;;;-0.15;79.98;99822.13;10195131;29;20076;-77
2023/01/19 23:02:39;;;;;;;66.85;26.10;;;;;;;0.22;79.24;99815.13;10196042;29;20032;-78
2023/01/19 23:07:42;;;;;;;55.95;24.23;;;;;;;0.05;79.89;99814.13;10201975;29;20058;-78
2023/01/19 23:12:47;;;;;;;48.35;19.45;;;;;;;-0.15;80.33;99809.78;10197502;29;20055;-78
2023/01/19 23:17:52;;;;;;;54.05;22.30;;;;;;;-0.20;81.14;99813.56;10205107;29;20040;-78
2023/01/19 23:22:55;;;;;;;49.42;21.17;;;;;;;-0.34;80.99;99825.59;10204211;29;20076;-78
2023/01/19 23:27:57;;;;;;;34.63;14.52;;;;;;;-0.18;80.81;99830.19;10191991;29;20083;-78
2023/01/19 23:33:02;;;;;;;45.72;19.42;;;;;;;0.04;79.81;99835.34;10193318;29;20039;-79